Terminal Aerodrome Forecast
Issued by NWS

Home | Current Version | Previous Version | Graphics & Text | Print | Product List | Glossary On
Versions: 1 2 3 4 5 6 7 8 9 10 11 12 13 14 15 16 17 18 19
000
FTUS43 KMPX 151120
TAFRNH
TAF
KRNH 151120Z 1512/1612 32014G20KT P6SM BKN015 OVC035
      TEMPO 1512/1515 BKN035
     FM151500 31012KT P6SM SCT020 BKN035
     FM151800 29010G16KT P6SM SCT025 BKN100
     FM160100 24003KT P6SM SCT250=

USA.gov is the U.S. government's official web portal to all federal, state and local government web resources and services.